Terminal Aerodrome Forecast
Issued by NWS

Home | Current Version | Previous Version | Text Only | Print | Product List | Glossary On
Versions: 1 2 3 4 5 6 7 8 9 10 11 12 13 14
000
FTUS46 KEKA 050520
TAFCEC
TAF
KCEC 050520Z 0506/0606 34010KT P6SM SKC
     FM051000 05005KT P6SM FEW035
     FM051600 30007KT P6SM SKC
     FM052000 32016G26KT P6SM SKC
     FM060300 34012KT P6SM SKC=

USA.gov is the U.S. government's official web portal to all federal, state and local government web resources and services.